Time;durP1;ratioP1;P1;durP2;ratioP2;P2;SDS_P1;SDS_P2;PMS_P1;PMS_P2;Temp;Humidity;BMP_temperature;BMP_pressure;BME280_temperature;BME280_humidity;BME280_pressure;Samples;Min_cycle;Max_cycle;Signal;HPM_P1;HPM_P2
2021/10/03 00:02:21;;;;;;;5.35;1.50;;;21.60;60.30;;;;;;4994179;28;20037;-63
2021/10/03 00:04:48;;;;;;;5.57;1.38;;;21.60;60.20;;;;;;4996168;28;20042;-64
2021/10/03 00:07:14;;;;;;;7.75;1.60;;;21.60;60.20;;;;;;4997060;28;20053;-64
2021/10/03 00:09:40;;;;;;;5.85;1.70;;;21.60;60.30;;;;;;4994472;28;20038;-64
2021/10/03 00:12:06;;;;;;;7.32;1.90;;;21.60;60.30;;;;;;4993827;28;20478;-64
2021/10/03 00:14:31;;;;;;;10.57;1.50;;;21.60;60.30;;;;;;4995096;28;20038;-64
2021/10/03 00:16:57;;;;;;;5.30;1.40;;;21.60;60.30;;;;;;4994428;28;20071;-64
2021/10/03 00:19:23;;;;;;;7.80;1.58;;;21.60;60.30;;;;;;4997000;28;20092;-64
2021/10/03 00:21:50;;;;;;;8.05;1.55;;;21.60;60.30;;;;;;4995433;28;20041;-64
2021/10/03 00:24:15;;;;;;;6.40;1.60;;;21.60;60.30;;;;;;4993939;28;20046;-62
2021/10/03 00:26:42;;;;;;;6.20;1.38;;;21.60;60.30;;;;;;4993040;28;20042;-64
2021/10/03 00:29:09;;;;;;;4.30;1.50;;;21.60;60.30;;;;;;4994519;28;20096;-64
2021/10/03 00:31:35;;;;;;;8.07;1.52;;;21.60;60.30;;;;;;4993095;28;20434;-63
2021/10/03 00:34:01;;;;;;;10.50;1.63;;;21.60;60.30;;;;;;4995059;28;20804;-64
2021/10/03 00:36:26;;;;;;;5.63;1.40;;;21.60;60.30;;;;;;4995911;28;20507;-63
2021/10/03 00:38:52;;;;;;;5.28;1.60;;;21.60;60.30;;;;;;4993637;28;20414;-63
2021/10/03 00:41:18;;;;;;;9.05;1.52;;;21.60;60.30;;;;;;4994400;28;20038;-63
2021/10/03 00:43:44;;;;;;;4.95;1.50;;;21.60;60.30;;;;;;4994832;28;20041;-63
2021/10/03 00:46:10;;;;;;;6.35;1.67;;;21.60;60.30;;;;;;4995678;28;20065;-64
2021/10/03 00:48:35;;;;;;;7.90;1.77;;;21.60;60.30;;;;;;4994680;28;20073;-64
2021/10/03 00:51:01;;;;;;;6.53;1.70;;;21.60;60.30;;;;;;4999655;28;20034;-63
2021/10/03 00:53:30;;;;;;;7.50;1.33;;;21.60;60.30;;;;;;4999306;28;20045;-63
2021/10/03 00:55:56;;;;;;;7.20;1.48;;;21.60;60.30;;;;;;4998631;28;20045;-64
2021/10/03 00:58:22;;;;;;;4.75;1.33;;;21.60;60.30;;;;;;4997723;28;20470;-63
2021/10/03 01:00:49;;;;;;;7.38;1.60;;;21.70;60.30;;;;;;4997752;28;20496;-63
2021/10/03 01:03:15;;;;;;;3.95;1.40;;;21.60;60.30;;;;;;4998089;28;20808;-63
2021/10/03 01:05:42;;;;;;;5.72;1.48;;;21.60;60.30;;;;;;4997006;28;20402;-64
2021/10/03 01:08:08;;;;;;;4.40;1.33;;;21.60;60.30;;;;;;4998685;28;20031;-64
2021/10/03 01:10:34;;;;;;;7.10;1.30;;;21.70;60.30;;;;;;4998007;28;20033;-63
2021/10/03 01:13:05;;;;;;;7.10;1.60;;;21.60;60.30;;;;;;4996416;28;20073;-63
2021/10/03 01:15:33;;;;;;;5.55;1.27;;;21.60;60.30;;;;;;4998379;28;20037;-63
2021/10/03 01:17:59;;;;;;;4.70;1.40;;;21.60;60.30;;;;;;4995537;28;20073;-64
2021/10/03 01:20:25;;;;;;;5.78;1.45;;;21.60;60.30;;;;;;5015945;28;20817;-64
2021/10/03 01:22:52;;;;;;;7.18;1.42;;;21.60;60.30;;;;;;4999729;28;20045;-63
2021/10/03 01:25:20;;;;;;;8.38;1.23;;;21.70;60.30;;;;;;4996717;28;20181;-63
2021/10/03 01:27:46;;;;;;;8.48;1.60;;;21.60;60.30;;;;;;4996916;28;20563;-63
2021/10/03 01:30:17;;;;;;;5.63;1.40;;;21.60;60.30;;;;;;4998851;28;20088;-63
2021/10/03 01:32:43;;;;;;;5.15;1.58;;;21.60;60.40;;;;;;4998088;28;20035;-64
2021/10/03 01:35:10;;;;;;;4.43;1.30;;;21.60;60.30;;;;;;4997017;28;20053;-63
2021/10/03 01:37:37;;;;;;;6.05;1.60;;;21.60;60.30;;;;;;4999015;28;20046;-63
2021/10/03 01:40:06;;;;;;;7.72;1.40;;;21.60;60.30;;;;;;4998062;28;20414;-64
2021/10/03 01:42:32;;;;;;;8.48;1.42;;;21.60;60.30;;;;;;4997436;28;20046;-63
2021/10/03 01:44:58;;;;;;;4.60;1.60;;;21.70;60.30;;;;;;4997394;28;20046;-62
2021/10/03 01:47:24;;;;;;;5.30;1.30;;;21.60;60.30;;;;;;4996189;28;20499;-64
2021/10/03 01:49:50;;;;;;;4.82;1.50;;;21.60;60.30;;;;;;4997115;28;20137;-63
2021/10/03 01:52:16;;;;;;;4.90;1.50;;;21.60;60.30;;;;;;4996284;28;20184;-63
2021/10/03 01:54:42;;;;;;;12.88;1.75;;;21.60;60.30;;;;;;4997694;28;20121;-64
2021/10/03 01:57:08;;;;;;;4.68;1.48;;;21.60;60.30;;;;;;4998625;28;20092;-63
2021/10/03 01:59:34;;;;;;;6.65;1.42;;;21.60;60.30;;;;;;4996929;28;20041;-64
2021/10/03 02:02:00;;;;;;;4.45;1.40;;;21.60;60.30;;;;;;4996304;28;20080;-64
2021/10/03 02:04:27;;;;;;;4.60;1.35;;;21.60;60.30;;;;;;4995757;28;20139;-63
2021/10/03 02:06:57;;;;;;;5.63;1.65;;;21.60;60.30;;;;;;4997890;28;20104;-64
2021/10/03 02:09:25;;;;;;;4.55;1.63;;;21.60;60.50;;;;;;4996544;28;20092;-64
2021/10/03 02:11:56;;;;;;;3.55;1.33;;;21.60;60.30;;;;;;4999095;28;20073;-63
2021/10/03 02:14:30;;;;;;;4.25;1.25;;;21.60;60.30;;;;;;4994832;28;20042;-64
2021/10/03 02:17:00;;;;;;;4.53;1.33;;;21.60;60.30;;;;;;4997653;28;20450;-64
2021/10/03 02:19:28;;;;;;;5.57;1.40;;;21.60;60.30;;;;;;4998778;28;20046;-64
2021/10/03 02:21:55;;;;;;;4.38;1.40;;;21.60;60.30;;;;;;4996045;28;20041;-64
2021/10/03 02:24:21;;;;;;;3.50;1.20;;;21.60;60.30;;;;;;4995098;28;20132;-64
2021/10/03 02:26:47;;;;;;;6.00;1.60;;;21.60;60.30;;;;;;4998063;28;20046;-63
2021/10/03 02:29:13;;;;;;;6.43;1.38;;;21.60;60.30;;;;;;4996222;28;20046;-64
2021/10/03 02:31:39;;;;;;;4.97;1.40;;;21.60;60.30;;;;;;4997611;28;20049;-64
2021/10/03 02:34:05;;;;;;;5.32;1.48;;;21.60;60.30;;;;;;4996336;28;20708;-64
2021/10/03 02:36:31;;;;;;;5.88;1.52;;;21.60;60.30;;;;;;4995752;28;20054;-64
2021/10/03 02:38:56;;;;;;;3.10;1.00;;;21.60;60.30;;;;;;4996111;28;20071;-64
2021/10/03 02:41:22;;;;;;;5.38;1.40;;;21.60;60.30;;;;;;4998802;28;20046;-64
2021/10/03 02:43:52;;;;;;;4.93;1.27;;;21.60;60.30;;;;;;4998418;28;20092;-63
2021/10/03 02:46:19;;;;;;;6.35;1.63;;;21.60;60.30;;;;;;4996726;28;20049;-63
2021/10/03 02:48:50;;;;;;;4.82;1.35;;;21.60;60.30;;;;;;4994897;28;20064;-65
2021/10/03 02:51:25;;;;;;;6.32;1.30;;;21.60;60.30;;;;;;4997361;28;20037;-64
2021/10/03 02:53:54;;;;;;;3.63;1.10;;;21.60;60.30;;;;;;4996922;28;20034;-63
2021/10/03 02:56:23;;;;;;;4.30;1.40;;;21.60;60.30;;;;;;4995986;28;20045;-63
2021/10/03 02:58:48;;;;;;;5.10;1.35;;;21.60;60.30;;;;;;4995527;28;20069;-63
2021/10/03 03:01:15;;;;;;;3.88;1.25;;;21.60;60.30;;;;;;4996406;28;20453;-64
2021/10/03 03:03:41;;;;;;;5.28;1.60;;;21.60;60.30;;;;;;4995789;28;20703;-64
2021/10/03 03:06:07;;;;;;;3.75;1.40;;;21.60;60.30;;;;;;5011223;28;20069;-64
2021/10/03 03:08:33;;;;;;;4.63;1.73;;;21.60;60.30;;;;;;4996307;28;20583;-64
2021/10/03 03:10:59;;;;;;;6.18;1.25;;;21.60;60.30;;;;;;4994481;28;20126;-63
2021/10/03 03:13:25;;;;;;;4.88;1.40;;;21.60;60.30;;;;;;4996454;28;20121;-63
2021/10/03 03:15:51;;;;;;;4.53;1.30;;;21.60;60.30;;;;;;4994797;28;20563;-64
2021/10/03 03:18:17;;;;;;;5.70;1.50;;;21.60;60.40;;;;;;4995502;28;20045;-64
2021/10/03 03:20:42;;;;;;;5.00;1.52;;;21.60;60.30;;;;;;4997593;28;20040;-64
2021/10/03 03:23:08;;;;;;;4.50;1.55;;;21.60;60.30;;;;;;4997090;28;20038;-63
2021/10/03 03:25:35;;;;;;;4.50;1.40;;;21.60;60.30;;;;;;4996813;28;20117;-63
2021/10/03 03:28:01;;;;;;;6.38;1.38;;;21.60;60.30;;;;;;4997469;28;20030;-63
2021/10/03 03:30:27;;;;;;;4.68;1.50;;;21.60;60.40;;;;;;4995404;28;20053;-64
2021/10/03 03:32:53;;;;;;;4.32;1.40;;;21.60;60.30;;;;;;4995677;28;20045;-62
2021/10/03 03:35:19;;;;;;;4.65;1.42;;;21.60;60.30;;;;;;4996002;28;20045;-63
2021/10/03 03:37:45;;;;;;;4.90;1.50;;;21.60;60.30;;;;;;4998380;28;20631;-63
2021/10/03 03:40:12;;;;;;;4.15;1.23;;;21.60;60.30;;;;;;4994631;28;20125;-63
2021/10/03 03:42:39;;;;;;;4.82;1.50;;;21.60;60.30;;;;;;4997865;28;20149;-63
2021/10/03 03:45:05;;;;;;;4.45;1.40;;;21.60;60.30;;;;;;4994744;28;20048;-64
2021/10/03 03:47:31;;;;;;;5.10;1.17;;;21.60;60.30;;;;;;4995204;28;20065;-63
2021/10/03 03:49:56;;;;;;;5.68;1.45;;;21.60;60.30;;;;;;4994514;28;20041;-64
2021/10/03 03:52:22;;;;;;;4.07;1.45;;;21.60;60.30;;;;;;4994321;28;20046;-64
2021/10/03 03:54:48;;;;;;;3.60;1.25;;;21.60;60.30;;;;;;4994565;28;20730;-63
2021/10/03 03:57:14;;;;;;;3.97;1.50;;;21.60;60.30;;;;;;4993165;28;20863;-64
2021/10/03 03:59:40;;;;;;;5.28;1.33;;;21.60;60.30;;;;;;4994359;28;20042;-63
2021/10/03 04:02:06;;;;;;;4.05;1.30;;;21.60;60.30;;;;;;4994494;28;20035;-63
2021/10/03 04:04:32;;;;;;;4.35;1.30;;;21.60;60.30;;;;;;4993769;28;20038;-63
2021/10/03 04:06:57;;;;;;;6.63;1.40;;;21.60;60.30;;;;;;4993960;28;20030;-63
2021/10/03 04:09:23;;;;;;;4.85;1.42;;;21.60;60.30;;;;;;4995702;28;20041;-63
2021/10/03 04:11:48;;;;;;;3.58;1.48;;;21.60;60.30;;;;;;4997901;28;20042;-64
2021/10/03 04:14:14;;;;;;;3.80;1.30;;;21.60;60.30;;;;;;4994264;28;20042;-64
2021/10/03 04:16:40;;;;;;;4.35;1.45;;;21.60;60.20;;;;;;4994945;28;20569;-63
2021/10/03 04:19:05;;;;;;;4.35;1.48;;;21.60;60.40;;;;;;4995686;28;20046;-63
2021/10/03 04:21:31;;;;;;;4.53;1.20;;;21.60;60.30;;;;;;4995170;28;20069;-63
2021/10/03 04:23:57;;;;;;;4.00;1.30;;;21.60;60.30;;;;;;4994270;28;20046;-63
2021/10/03 04:26:24;;;;;;;4.25;1.40;;;21.60;60.20;;;;;;4995263;28;20038;-63
2021/10/03 04:28:51;;;;;;;4.65;1.60;;;21.60;60.20;;;;;;4995014;28;20389;-64
2021/10/03 04:31:16;;;;;;;4.25;1.30;;;21.60;60.30;;;;;;4995167;28;20136;-63
2021/10/03 04:33:42;;;;;;;5.25;1.50;;;21.60;60.30;;;;;;4995932;28;20169;-62
2021/10/03 04:36:10;;;;;;;4.18;1.25;;;21.60;60.30;;;;;;4993804;28;20041;-64
2021/10/03 04:38:36;;;;;;;4.47;1.15;;;21.60;60.30;;;;;;4996189;28;20035;-63
2021/10/03 04:41:02;;;;;;;3.80;1.38;;;21.60;60.20;;;;;;4993635;28;20039;-64
2021/10/03 04:43:28;;;;;;;7.78;1.63;;;21.60;60.30;;;;;;4994282;28;20089;-63
2021/10/03 04:45:54;;;;;;;3.70;1.40;;;21.60;60.30;;;;;;4994606;28;20554;-63
2021/10/03 04:48:19;;;;;;;5.07;1.42;;;21.60;60.30;;;;;;4994534;28;20072;-63
2021/10/03 04:50:45;;;;;;;4.00;1.50;;;21.60;60.40;;;;;;4992932;28;20042;-64
2021/10/03 04:53:11;;;;;;;4.82;1.48;;;21.60;60.30;;;;;;4990541;28;20388;-63
2021/10/03 04:55:37;;;;;;;4.00;1.38;;;21.60;60.30;;;;;;4996227;28;20430;-63
2021/10/03 04:58:02;;;;;;;5.68;1.52;;;21.60;60.30;;;;;;4992124;28;20511;-64
2021/10/03 05:00:28;;;;;;;5.53;1.65;;;21.60;60.30;;;;;;4994196;28;20049;-64
2021/10/03 05:02:54;;;;;;;4.18;1.40;;;21.60;60.30;;;;;;4992585;28;20034;-64
2021/10/03 05:05:21;;;;;;;5.03;1.48;;;21.60;60.30;;;;;;4995536;28;20117;-64
2021/10/03 05:07:47;;;;;;;4.18;1.67;;;21.60;60.30;;;;;;4992201;28;20057;-64
2021/10/03 05:10:12;;;;;;;4.07;1.33;;;21.60;60.30;;;;;;4992306;28;20042;-64
2021/10/03 05:12:38;;;;;;;4.70;1.40;;;21.60;60.30;;;;;;4992387;28;20048;-64
2021/10/03 05:15:05;;;;;;;3.70;1.30;;;21.60;60.30;;;;;;4992563;28;20034;-63
2021/10/03 05:17:31;;;;;;;3.65;1.30;;;21.60;60.30;;;;;;4993003;28;20095;-65
2021/10/03 05:19:56;;;;;;;4.25;1.40;;;21.60;60.30;;;;;;4994701;28;20045;-64
2021/10/03 05:22:24;;;;;;;4.78;1.33;;;21.60;60.30;;;;;;4993580;28;20538;-64
2021/10/03 05:24:51;;;;;;;4.25;1.40;;;21.60;60.30;;;;;;4994036;28;20092;-64
2021/10/03 05:27:17;;;;;;;4.35;1.50;;;21.60;60.30;;;;;;4993631;28;20086;-64
2021/10/03 05:29:43;;;;;;;5.68;1.40;;;21.60;60.30;;;;;;4995382;28;20049;-64
2021/10/03 05:32:08;;;;;;;5.90;1.40;;;21.60;60.30;;;;;;4993412;28;20049;-64
2021/10/03 05:34:34;;;;;;;4.65;1.77;;;21.60;60.30;;;;;;4993272;28;20042;-64
2021/10/03 05:37:00;;;;;;;5.03;1.48;;;21.60;60.30;;;;;;4994936;28;20065;-65
2021/10/03 05:39:25;;;;;;;4.60;1.50;;;21.60;60.30;;;;;;4998058;28;20049;-64
2021/10/03 05:41:51;;;;;;;6.32;1.33;;;21.60;60.30;;;;;;5000508;28;20049;-63
2021/10/03 05:44:17;;;;;;;6.35;1.60;;;21.60;60.30;;;;;;4997010;28;20572;-63
2021/10/03 05:46:43;;;;;;;7.57;1.85;;;21.60;60.30;;;;;;4995260;28;20642;-64
2021/10/03 05:49:08;;;;;;;9.63;2.20;;;21.60;60.30;;;;;;4997601;28;20050;-63
2021/10/03 05:51:35;;;;;;;5.88;1.60;;;21.60;60.30;;;;;;4996696;28;20047;-63
2021/10/03 05:54:02;;;;;;;5.47;1.55;;;21.60;60.30;;;;;;4995467;28;20038;-64
2021/10/03 05:56:28;;;;;;;11.38;1.80;;;21.60;60.30;;;;;;4994689;28;20543;-63
2021/10/03 05:58:54;;;;;;;4.03;1.35;;;21.60;60.30;;;;;;4996364;28;20068;-63
2021/10/03 06:01:19;;;;;;;5.95;1.55;;;21.60;60.30;;;;;;4994879;28;20031;-64
2021/10/03 06:03:45;;;;;;;5.20;1.77;;;21.60;60.30;;;;;;4996933;28;20436;-63
2021/10/03 06:06:10;;;;;;;6.78;1.60;;;21.60;60.30;;;;;;4994879;28;20062;-63
2021/10/03 06:08:36;;;;;;;9.00;1.67;;;21.60;60.30;;;;;;4996204;28;20064;-63
2021/10/03 06:11:02;;;;;;;5.50;1.75;;;21.60;60.30;;;;;;4995232;28;20034;-64
2021/10/03 06:13:28;;;;;;;5.30;1.60;;;21.60;60.30;;;;;;4996156;28;20038;-64
2021/10/03 06:15:58;;;;;;;6.57;1.30;;;21.60;60.30;;;;;;4997134;28;20038;-63
2021/10/03 06:18:24;;;;;;;8.57;1.70;;;21.60;60.40;;;;;;4996583;28;20056;-63
2021/10/03 06:20:51;;;;;;;8.25;2.00;;;21.60;60.30;;;;;;4994875;28;20556;-64
2021/10/03 06:23:17;;;;;;;11.23;1.88;;;21.60;60.40;;;;;;4996681;28;20488;-64
2021/10/03 06:25:43;;;;;;;12.20;1.85;;;21.60;60.40;;;;;;4995233;28;20060;-63
2021/10/03 06:28:09;;;;;;;12.70;1.60;;;21.60;60.40;;;;;;4995539;28;20038;-63
2021/10/03 06:30:36;;;;;;;10.65;1.83;;;21.60;60.40;;;;;;4995792;28;20049;-64
2021/10/03 06:33:02;;;;;;;20.08;2.30;;;21.60;60.40;;;;;;4997852;28;20048;-64
2021/10/03 06:35:29;;;;;;;6.90;1.90;;;21.60;60.40;;;;;;4997210;28;20397;-63
2021/10/03 06:37:56;;;;;;;10.95;1.75;;;21.60;60.40;;;;;;4996227;28;20053;-63
2021/10/03 06:40:22;;;;;;;6.82;2.10;;;21.60;60.50;;;;;;4996772;28;20042;-63
2021/10/03 06:42:48;;;;;;;13.18;1.92;;;21.60;60.40;;;;;;4993099;28;20069;-63
2021/10/03 06:45:14;;;;;;;16.58;2.47;;;21.60;60.50;;;;;;4995415;28;20710;-63
2021/10/03 06:47:40;;;;;;;14.68;2.55;;;21.60;60.40;;;;;;4994611;28;20063;-63
2021/10/03 06:50:06;;;;;;;14.88;2.22;;;21.60;60.40;;;;;;4999292;28;20039;-62
2021/10/03 06:52:32;;;;;;;16.58;1.92;;;21.60;60.50;;;;;;4995200;28;20049;-64
2021/10/03 06:54:58;;;;;;;11.45;2.22;;;21.60;60.50;;;;;;4995949;28;20042;-63
2021/10/03 06:57:23;;;;;;;8.82;1.90;;;21.60;60.40;;;;;;4996171;28;20056;-62
2021/10/03 06:59:49;;;;;;;15.75;2.25;;;21.60;60.40;;;;;;4996399;28;20096;-62
2021/10/03 07:02:24;;;;;;;20.42;2.20;;;21.60;60.50;;;;;;4994717;28;20035;-64
2021/10/03 07:04:50;;;;;;;;;;;21.60;60.50;;;;;;4996904;28;20042;-63
2021/10/03 07:07:16;;;;;;;14.20;2.28;;;21.60;60.50;;;;;;4996706;28;19919;-64
2021/10/03 07:09:42;;;;;;;10.07;1.85;;;21.60;60.50;;;;;;4994808;28;20133;-63
2021/10/03 07:12:08;;;;;;;12.82;2.30;;;21.60;60.50;;;;;;4995837;28;20038;-63
2021/10/03 07:14:33;;;;;;;13.55;2.70;;;21.60;60.50;;;;;;4995432;28;20579;-63
2021/10/03 07:16:59;;;;;;;11.05;2.13;;;21.60;60.50;;;;;;4994325;28;20488;-64
2021/10/03 07:19:25;;;;;;;10.20;2.00;;;21.60;60.50;;;;;;4993644;28;20438;-64
2021/10/03 07:21:51;;;;;;;12.93;2.50;;;21.60;60.50;;;;;;4998279;28;20116;-63
2021/10/03 07:24:17;;;;;;;8.75;2.20;;;21.60;60.50;;;;;;4996030;28;20069;-65
2021/10/03 07:26:42;;;;;;;15.60;2.40;;;21.60;60.50;;;;;;4995914;28;20128;-62
2021/10/03 07:29:08;;;;;;;9.82;1.83;;;21.60;60.50;;;;;;4994668;28;20046;-63
2021/10/03 07:31:34;;;;;;;7.80;2.10;;;21.60;60.50;;;;;;4994845;28;20031;-64
2021/10/03 07:34:00;;;;;;;10.55;2.38;;;21.60;60.50;;;;;;4996172;28;20042;-63
2021/10/03 07:36:26;;;;;;;11.43;2.40;;;21.50;60.50;;;;;;4994290;28;20421;-63
2021/10/03 07:38:51;;;;;;;19.48;1.80;;;21.60;60.50;;;;;;4995907;28;20031;-64
2021/10/03 07:41:19;;;;;;;16.67;2.38;;;21.60;60.50;;;;;;4996684;28;20041;-62
2021/10/03 07:43:46;;;;;;;18.30;2.55;;;21.60;60.40;;;;;;4993145;28;20466;-64
2021/10/03 07:46:12;;;;;;;7.63;2.20;;;21.60;60.50;;;;;;4991659;28;20057;-64
2021/10/03 07:48:38;;;;;;;11.30;2.00;;;21.60;60.50;;;;;;4995066;28;20045;-64
2021/10/03 07:51:04;;;;;;;16.75;2.53;;;21.60;60.50;;;;;;4995408;28;20035;-64
2021/10/03 07:53:30;;;;;;;15.02;2.13;;;21.60;60.50;;;;;;4995096;28;20034;-63
2021/10/03 07:55:56;;;;;;;8.88;2.17;;;21.60;60.50;;;;;;4996019;28;20104;-64
2021/10/03 07:58:22;;;;;;;12.57;2.35;;;21.60;60.50;;;;;;4996312;28;20042;-63
2021/10/03 08:00:48;;;;;;;10.40;1.98;;;21.60;60.50;;;;;;4994572;28;20046;-64
2021/10/03 08:03:13;;;;;;;11.77;2.30;;;21.60;60.40;;;;;;4994782;28;20050;-64
2021/10/03 08:05:39;;;;;;;8.35;2.20;;;21.60;60.50;;;;;;4996053;28;20034;-64
2021/10/03 08:08:06;;;;;;;10.95;2.28;;;21.50;60.40;;;;;;4994711;28;20142;-64
2021/10/03 08:10:32;;;;;;;15.93;2.55;;;21.60;60.60;;;;;;4994948;28;20039;-64
2021/10/03 08:12:58;;;;;;;18.65;3.00;;;21.70;60.60;;;;;;4994436;28;20034;-64
2021/10/03 08:15:27;;;;;;;12.80;2.60;;;21.80;60.70;;;;;;4996886;28;20042;-63
2021/10/03 08:17:56;;;;;;;19.88;2.60;;;21.90;60.60;;;;;;4993778;28;20042;-65
2021/10/03 08:20:24;;;;;;;12.55;2.70;;;21.90;60.50;;;;;;4992866;28;20046;-65
2021/10/03 08:22:50;;;;;;;22.98;2.83;;;22.00;60.60;;;;;;4994321;28;20038;-65
2021/10/03 08:25:16;;;;;;;23.67;3.35;;;22.10;60.50;;;;;;4993885;28;20508;-64
2021/10/03 08:27:42;;;;;;;11.50;3.17;;;22.10;60.30;;;;;;4994879;28;20161;-63
2021/10/03 08:30:10;;;;;;;13.13;3.55;;;22.20;60.20;;;;;;4995057;28;20089;-64
2021/10/03 08:32:37;;;;;;;19.83;3.67;;;22.20;60.20;;;;;;4996876;28;20046;-63
2021/10/03 08:35:05;;;;;;;24.30;3.90;;;22.10;60.10;;;;;;4995266;28;20088;-62
2021/10/03 08:37:31;;;;;;;16.35;3.70;;;22.00;59.60;;;;;;4993367;28;20045;-64
2021/10/03 08:39:59;;;;;;;13.52;4.00;;;22.00;59.30;;;;;;4995292;28;20045;-63
2021/10/03 08:42:25;;;;;;;15.85;4.22;;;21.90;59.00;;;;;;4994573;28;20034;-63
2021/10/03 08:44:51;;;;;;;21.75;3.88;;;21.80;59.30;;;;;;4994407;28;20042;-64
2021/10/03 08:47:16;;;;;;;17.90;3.80;;;21.80;60.10;;;;;;4993412;28;20053;-64
2021/10/03 08:49:43;;;;;;;14.15;3.67;;;21.80;60.20;;;;;;4995859;28;20510;-63
2021/10/03 08:52:08;;;;;;;14.45;3.88;;;21.70;60.20;;;;;;4993267;28;20561;-64
2021/10/03 08:54:36;;;;;;;16.80;3.15;;;21.80;60.30;;;;;;4994984;28;20042;-63
2021/10/03 08:57:02;;;;;;;13.57;4.10;;;21.70;60.40;;;;;;4994169;28;20046;-63
2021/10/03 08:59:28;;;;;;;18.52;3.50;;;21.70;60.30;;;;;;4995293;28;20034;-64
2021/10/03 09:01:56;;;;;;;22.20;3.42;;;21.70;60.30;;;;;;4995152;28;20056;-64
2021/10/03 09:04:31;;;;;;;17.75;3.83;;;21.70;60.30;;;;;;4994146;28;20047;-64
2021/10/03 09:07:16;;;;;;;13.32;3.50;;;21.70;60.30;;;;;;4993801;28;20074;-63
2021/10/03 09:09:54;;;;;;;12.30;3.20;;;21.70;60.30;;;;;;4996139;28;20038;-63
2021/10/03 09:12:25;;;;;;;15.35;3.40;;;21.70;60.30;;;;;;4999932;28;20141;-62
2021/10/03 09:14:52;;;;;;;10.50;3.28;;;21.60;60.30;;;;;;4999105;28;20049;-63
2021/10/03 09:17:18;;;;;;;9.85;3.08;;;21.70;60.30;;;;;;4996749;28;20041;-64
2021/10/03 09:20:08;;;;;;;9.38;3.15;;;21.60;60.30;;;;;;4997719;28;20034;-63
2021/10/03 09:22:52;;;;;;;10.23;2.97;;;21.70;60.30;;;;;;4998256;28;20034;-63
2021/10/03 09:25:45;;;;;;;16.65;4.05;;;21.70;60.40;;;;;;4996963;28;20419;-64
2021/10/03 09:28:31;;;;;;;16.50;4.10;;;21.70;60.40;;;;;;4997252;28;20046;-63
2021/10/03 09:31:07;;;;;;;12.10;3.47;;;21.60;60.40;;;;;;4998032;28;20945;-64
2021/10/03 09:33:44;;;;;;;17.05;3.58;;;21.70;60.40;;;;;;4997481;28;20046;-63
2021/10/03 09:36:13;;;;;;;18.58;3.65;;;21.70;60.40;;;;;;4999157;28;20583;-63
2021/10/03 09:38:48;;;;;;;16.65;3.45;;;21.70;60.40;;;;;;4997792;28;20065;-64
2021/10/03 09:41:16;;;;;;;14.68;4.32;;;21.70;60.50;;;;;;4998997;28;20119;-64
2021/10/03 09:43:57;;;;;;;14.35;3.58;;;21.70;60.50;;;;;;4998532;28;20042;-63
2021/10/03 09:46:47;;;;;;;15.77;3.78;;;21.70;60.50;;;;;;4998328;28;20526;-64
2021/10/03 09:49:14;;;;;;;12.48;3.85;;;21.60;60.40;;;;;;4994877;28;20088;-63
2021/10/03 09:51:43;;;;;;;22.77;3.70;;;21.60;60.50;;;;;;4997749;28;20030;-63
2021/10/03 09:54:09;;;;;;;17.83;3.63;;;21.60;60.50;;;;;;4994692;28;20058;-65
2021/10/03 09:56:35;;;;;;;12.07;3.88;;;21.60;60.50;;;;;;4996901;28;20503;-63
2021/10/03 09:59:02;;;;;;;12.40;3.65;;;21.60;60.50;;;;;;4998115;28;20061;-63
2021/10/03 10:01:39;;;;;;;18.60;3.88;;;21.70;60.50;;;;;;5000584;28;20042;-63
2021/10/03 10:04:08;;;;;;;21.35;4.00;;;21.60;60.50;;;;;;4996783;28;20582;-63
2021/10/03 10:06:34;;;;;;;18.23;3.97;;;21.60;60.50;;;;;;5011415;28;20602;-65
2021/10/03 10:09:09;;;;;;;14.25;3.67;;;21.60;60.50;;;;;;4996184;28;20664;-64
2021/10/03 10:11:48;;;;;;;11.00;3.60;;;21.60;60.50;;;;;;4995909;28;20185;-64
2021/10/03 10:14:16;;;;;;;16.27;3.90;;;21.60;60.50;;;;;;4997625;28;20037;-64
2021/10/03 10:16:49;;;;;;;14.70;3.80;;;21.60;60.50;;;;;;5000784;28;20419;-63
2021/10/03 10:19:34;;;;;;;16.13;3.90;;;21.60;60.50;;;;;;4996828;28;20637;-63
2021/10/03 10:22:12;;;;;;;15.98;3.65;;;21.60;60.50;;;;;;4996380;28;20043;-62
2021/10/03 10:24:46;;;;;;;19.98;4.22;;;21.60;60.50;;;;;;4995688;28;20124;-64
2021/10/03 10:27:21;;;;;;;12.40;3.90;;;21.60;60.50;;;;;;4994697;28;20488;-64
2021/10/03 10:29:52;;;;;;;13.98;3.47;;;21.60;60.50;;;;;;4996557;28;20278;-63
2021/10/03 10:32:17;;;;;;;13.50;3.35;;;21.60;60.50;;;;;;4996151;28;20092;-64
2021/10/03 10:35:07;;;;;;;15.38;3.50;;;21.60;60.40;;;;;;4994405;28;20680;-64
2021/10/03 10:37:54;;;;;;;11.52;3.35;;;21.60;60.50;;;;;;4994208;28;20762;-64
2021/10/03 10:40:23;;;;;;;12.35;3.58;;;21.60;60.40;;;;;;4997053;28;20041;-65
2021/10/03 10:42:54;;;;;;;12.02;3.60;;;21.60;60.40;;;;;;4995887;28;20057;-63
2021/10/03 10:45:33;;;;;;;14.25;3.30;;;21.60;60.40;;;;;;4997310;28;20038;-64
2021/10/03 10:48:13;;;;;;;10.32;3.40;;;21.60;60.50;;;;;;4996158;28;20045;-64
2021/10/03 10:50:51;;;;;;;12.75;4.30;;;21.60;60.50;;;;;;4997351;28;20073;-63
2021/10/03 10:53:22;;;;;;;11.80;3.10;;;21.60;60.50;;;;;;4995718;28;20097;-64
2021/10/03 10:56:05;;;;;;;11.73;3.40;;;21.60;60.50;;;;;;4995464;28;20076;-62
2021/10/03 10:58:58;;;;;;;10.40;3.25;;;21.60;60.50;;;;;;4995627;28;20115;-64
2021/10/03 11:01:29;;;;;;;9.98;3.00;;;21.60;60.50;;;;;;4997490;28;20046;-64
2021/10/03 11:03:57;;;;;;;11.38;3.40;;;21.60;60.50;;;;;;4995372;28;20728;-63
2021/10/03 11:06:23;;;;;;;10.13;3.55;;;21.60;60.50;;;;;;4992619;28;20466;-64
2021/10/03 11:09:13;;;;;;;11.48;3.10;;;21.60;60.50;;;;;;4998289;28;20034;-64
2021/10/03 11:11:59;;;;;;;13.30;3.38;;;21.60;60.50;;;;;;4993690;28;20608;-64
2021/10/03 11:14:26;;;;;;;10.27;2.85;;;21.60;60.50;;;;;;4996954;28;20434;-63
2021/10/03 11:16:58;;;;;;;15.23;3.65;;;21.60;60.50;;;;;;4997359;28;20053;-64
2021/10/03 11:19:59;;;;;;;11.43;3.70;;;21.60;60.50;;;;;;4996825;28;20129;-64
2021/10/03 11:22:27;;;;;;;11.27;3.10;;;21.60;60.60;;;;;;4983158;28;20480;-64
2021/10/03 11:24:55;;;;;;;11.52;3.10;;;21.60;60.50;;;;;;4995736;28;20125;-63
2021/10/03 11:27:27;;;;;;;12.57;3.15;;;21.60;60.50;;;;;;4994168;28;20046;-63
2021/10/03 11:29:55;;;;;;;13.73;2.85;;;21.60;60.50;;;;;;4993267;28;20066;-64
2021/10/03 11:32:41;;;;;;;10.15;3.03;;;21.60;60.50;;;;;;4992668;28;20086;-63
2021/10/03 11:35:11;;;;;;;13.73;3.78;;;21.60;60.50;;;;;;4993713;28;20124;-63
2021/10/03 11:37:45;;;;;;;10.52;3.10;;;21.60;60.50;;;;;;4997043;28;20480;-63
2021/10/03 11:40:23;;;;;;;11.52;3.40;;;21.60;60.50;;;;;;4997152;28;20045;-63
2021/10/03 11:42:59;;;;;;;17.17;4.07;;;21.60;60.60;;;;;;4994624;28;20026;-64
2021/10/03 11:45:29;;;;;;;13.40;3.72;;;21.60;60.70;;;;;;4993997;28;20035;-63
2021/10/03 11:48:06;;;;;;;13.80;3.95;;;21.60;60.80;;;;;;4997342;28;20728;-64
2021/10/03 11:50:34;;;;;;;9.77;3.20;;;21.60;60.80;;;;;;4992993;28;20130;-63
2021/10/03 11:53:19;;;;;;;12.13;3.42;;;21.60;60.90;;;;;;4994484;28;20042;-63
2021/10/03 11:55:48;;;;;;;12.45;3.55;;;21.50;60.80;;;;;;4995934;28;20100;-63
2021/10/03 11:58:17;;;;;;;12.32;3.55;;;21.60;60.90;;;;;;4993923;28;20038;-63
2021/10/03 12:00:55;;;;;;;14.10;3.67;;;21.50;60.80;;;;;;4995119;28;20068;-63
2021/10/03 12:03:22;;;;;;;12.10;3.25;;;21.50;60.80;;;;;;4995348;28;20389;-62
2021/10/03 12:05:48;;;;;;;16.15;3.55;;;21.50;60.80;;;;;;4994877;28;20486;-62
2021/10/03 12:08:16;;;;;;;10.35;3.40;;;21.50;60.80;;;;;;4993646;28;20542;-63
2021/10/03 12:10:46;;;;;;;12.85;3.30;;;21.50;60.80;;;;;;4996022;28;20046;-63
2021/10/03 12:13:33;;;;;;;15.80;3.38;;;21.50;60.80;;;;;;4996435;28;20038;-62
2021/10/03 12:16:02;;;;;;;13.68;3.70;;;21.50;60.80;;;;;;4996178;28;20092;-62
2021/10/03 12:18:30;;;;;;;14.48;3.70;;;21.50;60.90;;;;;;4995574;28;20049;-63
2021/10/03 12:20:59;;;;;;;10.52;3.33;;;21.50;60.80;;;;;;4996705;28;20038;-62
2021/10/03 12:23:52;;;;;;;12.45;3.30;;;21.50;60.80;;;;;;5000122;28;20030;-62
2021/10/03 12:26:28;;;;;;;12.50;3.50;;;21.50;60.90;;;;;;4995334;28;20042;-62
2021/10/03 12:29:06;;;;;;;11.40;3.15;;;21.50;60.90;;;;;;4993689;28;20044;-63
2021/10/03 12:31:40;;;;;;;12.35;3.58;;;21.50;60.90;;;;;;4994431;28;20400;-63
2021/10/03 12:34:15;;;;;;;14.95;3.33;;;21.50;60.90;;;;;;4993830;28;20144;-64
2021/10/03 12:36:42;;;;;;;13.80;3.40;;;21.50;60.90;;;;;;4992997;28;20451;-63
2021/10/03 12:39:08;;;;;;;13.00;3.72;;;21.50;60.90;;;;;;4992938;28;20125;-63
2021/10/03 12:41:33;;;;;;;9.52;3.17;;;21.50;60.80;;;;;;4994815;28;20546;-64
2021/10/03 12:43:59;;;;;;;10.07;3.30;;;21.50;60.90;;;;;;4994943;28;20037;-62
2021/10/03 12:46:26;;;;;;;11.32;3.10;;;21.50;60.90;;;;;;4992754;28;20038;-63
2021/10/03 12:48:52;;;;;;;9.23;3.30;;;21.50;60.90;;;;;;4995874;28;20036;-63
2021/10/03 12:51:18;;;;;;;9.60;3.03;;;21.50;60.90;;;;;;4994133;28;20034;-64